Time;durP1;ratioP1;P1;durP2;ratioP2;P2;SDS_P1;SDS_P2;PMS_P1;PMS_P2;Temp;Humidity;BMP_temperature;BMP_pressure;BME280_temperature;BME280_humidity;BME280_pressure;Samples;Min_cycle;Max_cycle;Signal;HPM_P1;HPM_P2
2023/07/26 00:01:47;;;;;;;5.43;2.53;;;;;;;;;;4991599;28;20224;-79
2023/07/26 00:04:12;;;;;;;8.10;2.57;;;;;;;;;;5026319;28;20211;-78
2023/07/26 00:06:38;;;;;;;5.53;2.43;;;;;;;;;;5014408;28;21005;-81
2023/07/26 00:09:04;;;;;;;3.63;2.20;;;;;;;;;;5042185;28;20228;-80
2023/07/26 00:11:32;;;;;;;3.33;2.20;;;;;;;;;;4988863;28;20334;-81
2023/07/26 00:13:57;;;;;;;6.23;2.57;;;;;;;;;;5030312;28;20277;-80
2023/07/26 00:16:26;;;;;;;4.77;2.50;;;;;;;;;;5015463;28;20224;-78
2023/07/26 00:18:52;;;;;;;4.00;2.70;;;;;;;;;;5042588;28;20731;-80
2023/07/26 00:21:19;;;;;;;7.67;2.67;;;;;;;;;;5021059;28;20224;-80
2023/07/26 00:23:50;;;;;;;4.20;2.23;;;;;;;;;;5014936;28;20223;-81
2023/07/26 00:26:18;;;;;;;4.37;2.70;;;;;;;;;;4988592;28;20223;-81
2023/07/26 00:28:45;;;;;;;5.33;2.37;;;;;;;;;;5022367;28;20315;-80
2023/07/26 00:31:14;;;;;;;6.53;2.30;;;;;;;;;;5021745;28;20216;-81
2023/07/26 00:33:42;;;;;;;3.83;2.13;;;;;;;;;;5013806;28;20315;-80
2023/07/26 00:36:08;;;;;;;2.67;2.27;;;;;;;;;;5011426;28;20314;-80
2023/07/26 00:38:33;;;;;;;3.47;2.37;;;;;;;;;;4992355;28;20294;-81
2023/07/26 00:41:01;;;;;;;4.63;1.90;;;;;;;;;;5029424;28;20234;-80
2023/07/26 00:43:27;;;;;;;5.67;2.20;;;;;;;;;;5024134;28;20215;-81
2023/07/26 00:45:52;;;;;;;3.90;2.20;;;;;;;;;;5025009;28;20227;-78
2023/07/26 00:48:22;;;;;;;2.90;2.10;;;;;;;;;;5014907;28;20594;-82
2023/07/26 00:50:48;;;;;;;4.57;2.67;;;;;;;;;;5008730;28;20223;-79
2023/07/26 00:53:16;;;;;;;3.30;2.50;;;;;;;;;;5014604;28;20218;-80
2023/07/26 00:55:44;;;;;;;4.07;2.47;;;;;;;;;;5013326;28;20228;-81
2023/07/26 00:58:12;;;;;;;6.07;2.50;;;;;;;;;;5014491;28;20196;-82
2023/07/26 01:00:42;;;;;;;4.97;2.30;;;;;;;;;;5023835;28;20588;-80
2023/07/26 01:03:07;;;;;;;3.57;2.00;;;;;;;;;;5021721;28;20762;-80
2023/07/26 01:05:37;;;;;;;6.27;2.20;;;;;;;;;;5005552;28;20224;-80
2023/07/26 01:08:06;;;;;;;5.47;2.33;;;;;;;;;;5012386;28;20600;-79
2023/07/26 01:10:57;;;;;;;3.00;2.00;;;;;;;;;;5031408;28;20216;-78
2023/07/26 01:13:31;;;;;;;2.90;2.00;;;;;;;;;;5033988;28;20223;-80
2023/07/26 01:15:57;;;;;;;2.37;2.13;;;;;;;;;;5013540;28;20223;-78
2023/07/26 01:18:22;;;;;;;4.20;2.23;;;;;;;;;;5014836;28;20685;-78
2023/07/26 01:20:48;;;;;;;5.50;2.43;;;;;;;;;;5008937;28;20230;-80
2023/07/26 01:23:13;;;;;;;3.33;2.30;;;;;;;;;;5017143;28;20319;-79
2023/07/26 01:25:39;;;;;;;3.67;2.50;;;;;;;;;;5017502;28;20227;-79
2023/07/26 01:28:04;;;;;;;5.53;2.43;;;;;;;;;;5026901;28;20238;-79
2023/07/26 01:30:31;;;;;;;3.23;2.43;;;;;;;;;;5025568;28;20230;-80
2023/07/26 01:33:09;;;;;;;3.90;2.30;;;;;;;;;;5029502;28;20699;-79
2023/07/26 01:35:41;;;;;;;3.17;2.10;;;;;;;;;;4998312;28;20285;-81
2023/07/26 01:38:07;;;;;;;4.67;2.37;;;;;;;;;;4996693;28;20226;-80
2023/07/26 01:40:37;;;;;;;2.60;2.40;;;;;;;;;;5005432;28;20219;-80
2023/07/26 01:43:03;;;;;;;6.93;2.30;;;;;;;;;;5012468;28;20219;-81
2023/07/26 01:45:29;;;;;;;4.77;2.63;;;;;;;;;;5041930;28;20219;-80
2023/07/26 01:47:54;;;;;;;4.60;2.50;;;;;;;;;;5020444;28;20295;-81
2023/07/26 01:50:20;;;;;;;2.87;2.27;;;;;;;;;;5013097;28;20274;-78
2023/07/26 01:52:48;;;;;;;3.17;2.43;;;;;;;;;;5029712;28;20223;-80
2023/07/26 01:55:13;;;;;;;4.03;2.57;;;;;;;;;;5023180;28;20306;-79
2023/07/26 01:57:39;;;;;;;2.60;2.40;;;;;;;;;;5011781;28;20743;-80
2023/07/26 02:00:05;;;;;;;5.97;2.70;;;;;;;;;;5011254;28;20216;-79
2023/07/26 02:02:38;;;;;;;3.53;2.40;;;;;;;;;;5012478;28;20220;-79
2023/07/26 02:05:04;;;;;;;4.27;2.50;;;;;;;;;;4990345;28;20253;-79
2023/07/26 02:07:30;;;;;;;4.87;2.63;;;;;;;;;;5020449;28;20274;-79
2023/07/26 02:09:57;;;;;;;5.10;2.53;;;;;;;;;;5020102;28;20239;-79
2023/07/26 02:12:23;;;;;;;2.93;2.43;;;;;;;;;;5026542;28;20224;-79
2023/07/26 02:14:50;;;;;;;3.03;2.73;;;;;;;;;;5014552;28;20583;-78
2023/07/26 02:17:18;;;;;;;3.17;2.50;;;;;;;;;;5028844;28;20215;-78
2023/07/26 02:19:46;;;;;;;3.07;2.53;;;;;;;;;;5005488;28;20223;-79
2023/07/26 02:22:11;;;;;;;6.30;3.17;;;;;;;;;;5022953;28;20211;-78
2023/07/26 02:24:37;;;;;;;4.20;2.60;;;;;;;;;;5013488;28;20238;-79
2023/07/26 02:27:02;;;;;;;3.40;2.60;;;;;;;;;;4985925;28;20224;-79
2023/07/26 02:29:28;;;;;;;3.37;2.47;;;;;;;;;;5000381;28;20235;-79
2023/07/26 02:31:54;;;;;;;2.90;2.60;;;;;;;;;;5011652;28;20224;-79
2023/07/26 02:34:19;;;;;;;5.73;2.73;;;;;;;;;;5010369;28;20222;-79
2023/07/26 02:36:45;;;;;;;2.90;2.60;;;;;;;;;;5021244;28;20287;-79
2023/07/26 02:39:12;;;;;;;4.87;2.80;;;;;;;;;;5023176;28;20223;-79
2023/07/26 02:41:38;;;;;;;4.70;2.97;;;;;;;;;;5012454;28;20235;-79
2023/07/26 02:44:03;;;;;;;4.30;2.80;;;;;;;;;;5013006;28;20868;-79
2023/07/26 02:46:29;;;;;;;3.80;2.60;;;;;;;;;;5028531;28;20246;-78
2023/07/26 02:48:54;;;;;;;3.80;2.80;;;;;;;;;;5028689;28;20221;-78
2023/07/26 02:51:20;;;;;;;4.23;2.90;;;;;;;;;;4990949;28;20226;-80
2023/07/26 02:53:48;;;;;;;4.97;2.80;;;;;;;;;;5023955;28;21008;-79
2023/07/26 02:56:13;;;;;;;5.43;2.97;;;;;;;;;;5031518;28;20607;-79
2023/07/26 02:58:41;;;;;;;4.53;2.80;;;;;;;;;;5038383;28;20274;-79
2023/07/26 03:01:09;;;;;;;6.90;3.13;;;;;;;;;;5039702;28;20265;-79
2023/07/26 03:03:35;;;;;;;3.63;3.20;;;;;;;;;;4989097;28;20239;-79
2023/07/26 03:06:03;;;;;;;5.57;3.30;;;;;;;;;;5015770;28;20216;-79
2023/07/26 03:08:28;;;;;;;3.90;3.00;;;;;;;;;;5013274;28;20263;-79
2023/07/26 03:10:54;;;;;;;4.80;3.53;;;;;;;;;;5033273;28;20223;-80
2023/07/26 03:13:23;;;;;;;3.50;3.17;;;;;;;;;;5016031;28;20268;-80
2023/07/26 03:15:52;;;;;;;6.30;3.47;;;;;;;;;;5043029;28;20718;-79
2023/07/26 03:18:17;;;;;;;3.93;3.23;;;;;;;;;;5016317;28;20212;-78
2023/07/26 03:20:46;;;;;;;8.40;3.30;;;;;;;;;;5011786;28;20284;-79
2023/07/26 03:23:13;;;;;;;6.30;3.73;;;;;;;;;;5038888;28;21241;-77
2023/07/26 03:25:38;;;;;;;6.83;3.40;;;;;;;;;;5034609;28;20286;-77
2023/07/26 03:28:04;;;;;;;4.07;3.23;;;;;;;;;;5040173;28;20228;-78
2023/07/26 03:30:34;;;;;;;3.77;3.33;;;;;;;;;;5025369;28;20220;-77
2023/07/26 03:32:59;;;;;;;8.73;3.77;;;;;;;;;;5003784;28;20342;-78
2023/07/26 03:35:26;;;;;;;6.20;3.53;;;;;;;;;;5025501;28;20229;-78
2023/07/26 03:37:54;;;;;;;6.00;3.60;;;;;;;;;;5012717;28;20216;-78
2023/07/26 03:40:24;;;;;;;6.23;3.60;;;;;;;;;;5017425;28;20222;-78
2023/07/26 03:42:49;;;;;;;5.87;3.97;;;;;;;;;;5040379;28;20285;-77
2023/07/26 03:45:17;;;;;;;5.67;3.50;;;;;;;;;;5023572;28;20231;-78
2023/07/26 03:47:45;;;;;;;4.13;3.00;;;;;;;;;;5037180;28;20227;-79
2023/07/26 03:50:12;;;;;;;3.83;3.43;;;;;;;;;;5031532;28;20212;-80
2023/07/26 03:52:38;;;;;;;5.93;3.30;;;;;;;;;;5033470;28;20226;-80
2023/07/26 03:55:06;;;;;;;5.03;3.90;;;;;;;;;;5028294;28;20224;-82
2023/07/26 03:57:31;;;;;;;6.57;3.30;;;;;;;;;;5008844;28;20219;-81
2023/07/26 04:06:54;;;;;;;4.27;3.10;;;;;;;;;;5009168;28;20216;-79
2023/07/26 04:09:20;;;;;;;4.07;3.50;;;;;;;;;;5021932;28;20227;-80
2023/07/26 04:11:45;;;;;;;5.13;3.43;;;;;;;;;;5023987;28;20245;-79
2023/07/26 04:14:11;;;;;;;5.17;3.10;;;;;;;;;;5036260;28;20230;-79
2023/07/26 04:16:39;;;;;;;3.67;3.30;;;;;;;;;;5020639;28;20211;-81
2023/07/26 04:19:07;;;;;;;6.37;3.60;;;;;;;;;;5031059;28;20650;-78
2023/07/26 04:21:33;;;;;;;4.77;3.13;;;;;;;;;;5015159;28;20227;-81
2023/07/26 04:24:00;;;;;;;5.90;3.60;;;;;;;;;;5034811;28;20220;-81
2023/07/26 04:26:26;;;;;;;8.17;3.37;;;;;;;;;;4997024;28;20289;-81
2023/07/26 04:28:51;;;;;;;5.07;3.40;;;;;;;;;;5007390;28;20278;-81
2023/07/26 04:31:17;;;;;;;5.83;3.77;;;;;;;;;;5032170;28;20219;-82
2023/07/26 04:33:42;;;;;;;3.80;3.40;;;;;;;;;;5002237;28;20223;-81
2023/07/26 04:36:08;;;;;;;5.33;3.57;;;;;;;;;;5010068;28;20232;-81
2023/07/26 04:38:36;;;;;;;3.77;3.40;;;;;;;;;;4989920;28;20264;-80
2023/07/26 04:41:03;;;;;;;7.87;3.40;;;;;;;;;;5010038;28;20234;-82
2023/07/26 04:43:29;;;;;;;5.23;3.57;;;;;;;;;;4985854;28;20291;-81
2023/07/26 04:45:55;;;;;;;5.77;3.50;;;;;;;;;;5002282;28;20272;-81
2023/07/26 04:48:23;;;;;;;5.27;3.20;;;;;;;;;;5016937;28;20223;-80
2023/07/26 04:50:48;;;;;;;7.67;3.20;;;;;;;;;;4996610;28;20229;-80
2023/07/26 04:53:14;;;;;;;3.97;2.90;;;;;;;;;;5009084;28;20224;-78
2023/07/26 04:55:44;;;;;;;4.97;3.30;;;;;;;;;;5000650;28;20795;-80
2023/07/26 04:58:09;;;;;;;3.77;2.80;;;;;;;;;;5019749;28;20223;-78
2023/07/26 05:00:39;;;;;;;3.67;3.20;;;;;;;;;;5015666;28;20220;-77
2023/07/26 05:03:05;;;;;;;3.87;3.10;;;;;;;;;;5040641;28;20223;-76
2023/07/26 05:05:32;;;;;;;4.07;3.40;;;;;;;;;;5008787;28;20231;-78
2023/07/26 05:07:57;;;;;;;4.77;3.70;;;;;;;;;;5008680;28;20255;-79
2023/07/26 05:10:25;;;;;;;3.30;3.00;;;;;;;;;;5008830;28;20231;-78
2023/07/26 05:12:51;;;;;;;3.70;3.10;;;;;;;;;;5026632;28;20215;-80
2023/07/26 05:15:17;;;;;;;3.23;2.97;;;;;;;;;;5012435;28;20229;-78
2023/07/26 05:17:44;;;;;;;5.70;3.27;;;;;;;;;;4992613;28;20220;-79
2023/07/26 05:20:12;;;;;;;4.30;2.83;;;;;;;;;;5024220;28;20717;-78
2023/07/26 05:22:38;;;;;;;5.47;3.20;;;;;;;;;;5022837;28;20227;-77
2023/07/26 05:25:06;;;;;;;4.00;2.93;;;;;;;;;;5014037;28;20280;-78
2023/07/26 05:27:33;;;;;;;5.73;3.00;;;;;;;;;;5041211;28;20211;-80
2023/07/26 05:29:59;;;;;;;2.63;2.43;;;;;;;;;;5023386;28;20727;-80
2023/07/26 05:32:27;;;;;;;3.77;2.90;;;;;;;;;;5014190;28;20219;-79
2023/07/26 05:34:59;;;;;;;6.17;3.00;;;;;;;;;;4992214;28;20338;-79
2023/07/26 05:37:24;;;;;;;6.10;3.37;;;;;;;;;;5030438;28;20237;-78
2023/07/26 05:39:50;;;;;;;3.47;3.00;;;;;;;;;;5008466;28;20244;-78
2023/07/26 05:42:18;;;;;;;6.00;3.17;;;;;;;;;;5008836;28;20224;-78
2023/07/26 05:44:43;;;;;;;8.17;3.07;;;;;;;;;;5015553;28;20246;-77
2023/07/26 05:47:11;;;;;;;4.63;2.83;;;;;;;;;;4998488;28;20697;-79
2023/07/26 05:49:43;;;;;;;3.83;2.80;;;;;;;;;;5032131;28;20288;-79
2023/07/26 05:52:11;;;;;;;3.50;3.07;;;;;;;;;;5012922;28;20223;-80
2023/07/26 05:54:39;;;;;;;3.27;2.67;;;;;;;;;;5006353;28;20212;-81
2023/07/26 05:57:04;;;;;;;4.57;2.73;;;;;;;;;;5013523;28;20274;-78
2023/07/26 05:59:33;;;;;;;5.13;4.00;;;;;;;;;;5012138;28;20227;-78
2023/07/26 06:01:58;;;;;;;5.37;4.17;;;;;;;;;;5009002;28;20260;-80
2023/07/26 06:04:26;;;;;;;3.37;3.07;;;;;;;;;;5014325;28;20223;-79
2023/07/26 06:06:52;;;;;;;4.33;3.00;;;;;;;;;;5028000;28;20247;-78
2023/07/26 06:09:21;;;;;;;4.13;3.00;;;;;;;;;;5024587;28;20231;-79
2023/07/26 06:11:48;;;;;;;2.73;2.50;;;;;;;;;;5014544;28;20632;-79
2023/07/26 06:14:18;;;;;;;2.87;2.50;;;;;;;;;;5030035;28;20609;-80
2023/07/26 06:16:44;;;;;;;2.87;2.53;;;;;;;;;;4995942;28;20220;-78
2023/07/26 06:19:09;;;;;;;3.60;2.30;;;;;;;;;;5008105;28;20230;-79
2023/07/26 06:21:35;;;;;;;6.97;2.70;;;;;;;;;;4993868;28;20222;-80
2023/07/26 06:24:00;;;;;;;4.20;2.40;;;;;;;;;;5002500;28;20257;-79
2023/07/26 06:26:26;;;;;;;3.07;2.60;;;;;;;;;;5027867;28;20231;-81
2023/07/26 06:28:51;;;;;;;2.70;2.50;;;;;;;;;;5041537;28;20239;-79
2023/07/26 06:31:17;;;;;;;4.30;2.58;;;;;;;;;;5035136;28;20215;-80
2023/07/26 06:33:42;;;;;;;3.10;2.30;;;;;;;;;;5021675;28;20227;-79
2023/07/26 06:36:08;;;;;;;3.15;1.77;;;;;;;;;;5033706;28;20714;-79
2023/07/26 06:38:34;;;;;;;3.70;2.55;;;;;;;;;;5018973;28;20634;-78
2023/07/26 06:41:00;;;;;;;3.80;2.40;;;;;;;;;;5037013;28;20629;-80
2023/07/26 06:43:28;;;;;;;7.57;2.22;;;;;;;;;;5023463;28;20255;-78
2023/07/26 06:45:56;;;;;;;3.75;2.40;;;;;;;;;;5033299;28;20802;-79
2023/07/26 06:48:22;;;;;;;4.07;2.53;;;;;;;;;;5018464;28;20275;-78
2023/07/26 06:50:47;;;;;;;2.40;1.90;;;;;;;;;;5024678;28;20504;-78
2023/07/26 06:53:13;;;;;;;2.65;2.17;;;;;;;;;;5028698;28;20297;-77
2023/07/26 06:55:38;;;;;;;3.92;2.28;;;;;;;;;;5047044;28;20236;-78
2023/07/26 06:58:06;;;;;;;2.97;2.13;;;;;;;;;;5038440;28;20230;-78
2023/07/26 07:00:32;;;;;;;2.60;1.90;;;;;;;;;;5013856;28;20234;-77
2023/07/26 07:03:01;;;;;;;2.63;2.03;;;;;;;;;;5044618;28;21062;-77
2023/07/26 07:05:30;;;;;;;4.45;2.00;;;;;;;;;;5036138;28;21148;-78
2023/07/26 07:07:55;;;;;;;1.90;1.80;;;;;;;;;;5027274;28;20224;-78
2023/07/26 07:10:22;;;;;;;3.83;2.55;;;;;;;;;;5042818;28;20214;-78
2023/07/26 07:12:47;;;;;;;3.33;2.15;;;;;;;;;;5022521;28;20215;-78
2023/07/26 07:15:13;;;;;;;2.67;2.05;;;;;;;;;;5013369;28;20219;-77
2023/07/26 07:17:41;;;;;;;2.88;2.05;;;;;;;;;;5027602;28;20211;-81
2023/07/26 07:20:07;;;;;;;4.40;1.83;;;;;;;;;;5018029;28;20257;-79
2023/07/26 07:22:33;;;;;;;1.55;1.45;;;;;;;;;;5013733;28;20227;-80
2023/07/26 07:24:59;;;;;;;2.25;2.05;;;;;;;;;;5048504;28;20273;-80
2023/07/26 07:27:24;;;;;;;3.75;2.13;;;;;;;;;;4995400;28;20636;-77
2023/07/26 07:29:50;;;;;;;2.17;1.63;;;;;;;;;;5030380;28;20844;-78
2023/07/26 07:32:18;;;;;;;2.58;1.77;;;;;;;;;;5021079;28;20254;-80
2023/07/26 07:34:49;;;;;;;3.40;1.88;;;;;;;;;;5015242;28;20216;-79
2023/07/26 07:37:14;;;;;;;2.13;1.83;;;;;;;;;;5021415;28;20250;-78
2023/07/26 07:39:40;;;;;;;3.08;1.83;;;;;;;;;;5032792;28;20793;-80
2023/07/26 07:42:05;;;;;;;2.47;1.80;;;;;;;;;;5030745;28;20228;-80
2023/07/26 07:44:33;;;;;;;2.55;1.60;;;;;;;;;;5018785;28;20219;-79
2023/07/26 07:47:01;;;;;;;2.83;1.85;;;;;;;;;;5035393;28;20228;-79
2023/07/26 07:49:27;;;;;;;2.75;1.55;;;;;;;;;;5021275;28;20236;-77
2023/07/26 07:51:53;;;;;;;3.88;1.65;;;;;;;;;;5029716;28;20223;-79
2023/07/26 07:54:19;;;;;;;8.02;1.85;;;;;;;;;;5029076;28;20250;-79
2023/07/26 07:56:45;;;;;;;3.42;1.70;;;;;;;;;;5032236;28;20227;-79
2023/07/26 07:59:11;;;;;;;2.20;1.67;;;;;;;;;;5031048;28;20801;-79
2023/07/26 08:01:37;;;;;;;2.60;1.73;;;;;;;;;;4996906;28;20224;-77
2023/07/26 08:04:02;;;;;;;4.30;1.63;;;;;;;;;;4995780;28;20668;-79
2023/07/26 08:06:29;;;;;;;2.50;1.75;;;;;;;;;;5047445;28;20223;-78
2023/07/26 08:08:55;;;;;;;2.50;1.67;;;;;;;;;;5011567;28;20231;-79
2023/07/26 08:11:21;;;;;;;4.97;1.98;;;;;;;;;;5017334;28;20215;-78
2023/07/26 08:13:49;;;;;;;2.60;1.52;;;;;;;;;;5027147;28;20219;-81
2023/07/26 08:16:17;;;;;;;4.85;1.52;;;;;;;;;;5036068;28;20230;-78
2023/07/26 08:18:43;;;;;;;4.65;1.80;;;;;;;;;;5018397;28;20215;-79
2023/07/26 08:21:11;;;;;;;2.95;1.77;;;;;;;;;;5026188;28;20218;-79
2023/07/26 08:23:36;;;;;;;3.03;1.70;;;;;;;;;;5010948;28;20208;-78
2023/07/26 08:26:10;;;;;;;3.85;2.00;;;;;;;;;;4992413;28;20220;-77
2023/07/26 08:28:38;;;;;;;2.35;1.55;;;;;;;;;;5033849;28;20231;-78
2023/07/26 08:31:08;;;;;;;1.95;1.45;;;;;;;;;;5012746;28;20211;-81
2023/07/26 08:33:33;;;;;;;4.63;1.48;;;;;;;;;;5009283;28;20236;-79
2023/07/26 08:36:01;;;;;;;2.55;1.55;;;;;;;;;;5015201;28;20211;-77
2023/07/26 08:38:29;;;;;;;3.22;1.60;;;;;;;;;;4997988;28;20299;-79
2023/07/26 08:40:55;;;;;;;3.40;1.70;;;;;;;;;;5018520;28;20230;-79
2023/07/26 08:43:20;;;;;;;4.63;1.38;;;;;;;;;;5006681;28;20223;-79
2023/07/26 08:45:48;;;;;;;2.05;1.55;;;;;;;;;;4998931;28;20562;-77
2023/07/26 08:48:14;;;;;;;2.75;1.52;;;;;;;;;;5031818;28;20235;-79
2023/07/26 08:50:39;;;;;;;2.45;1.58;;;;;;;;;;5019544;28;20281;-80
2023/07/26 08:53:05;;;;;;;3.25;1.48;;;;;;;;;;5009831;28;20231;-79
2023/07/26 08:55:31;;;;;;;4.80;1.52;;;;;;;;;;5032485;28;20993;-78
2023/07/26 08:58:00;;;;;;;2.10;1.75;;;;;;;;;;5037634;28;20238;-81
2023/07/26 09:00:28;;;;;;;3.10;1.38;;;;;;;;;;5004659;28;20744;-79
2023/07/26 09:02:58;;;;;;;4.10;1.38;;;;;;;;;;5017032;28;20323;-80
2023/07/26 09:05:23;;;;;;;2.17;1.40;;;;;;;;;;4992834;28;20234;-79
2023/07/26 09:07:51;;;;;;;2.08;1.30;;;;;;;;;;5038584;28;20216;-80
2023/07/26 09:10:29;;;;;;;3.22;1.55;;;;;;;;;;4996503;28;20225;-77
2023/07/26 09:13:12;;;;;;;1.52;1.23;;;;;;;;;;5035004;28;20238;-78
2023/07/26 09:15:38;;;;;;;2.17;1.38;;;;;;;;;;5051287;28;20223;-78
2023/07/26 09:18:07;;;;;;;1.83;1.42;;;;;;;;;;5033563;28;20235;-78
2023/07/26 09:20:35;;;;;;;2.45;1.60;;;;;;;;;;5030195;28;20227;-80
2023/07/26 09:23:05;;;;;;;1.85;1.30;;;;;;;;;;5014653;28;20234;-79
2023/07/26 09:25:34;;;;;;;1.63;1.10;;;;;;;;;;5031176;28;20224;-79
2023/07/26 09:28:01;;;;;;;2.13;1.35;;;;;;;;;;5030426;28;20731;-77
2023/07/26 09:30:26;;;;;;;1.90;1.30;;;;;;;;;;5018147;28;20215;-77
2023/07/26 09:32:52;;;;;;;1.63;1.30;;;;;;;;;;5036795;28;20269;-78
2023/07/26 09:35:18;;;;;;;2.00;1.33;;;;;;;;;;5031501;28;20211;-78
2023/07/26 09:37:48;;;;;;;3.50;1.40;;;;;;;;;;5034976;28;20306;-80
2023/07/26 09:40:14;;;;;;;1.33;1.20;;;;;;;;;;4999199;28;20687;-81
2023/07/26 09:42:46;;;;;;;1.33;1.20;;;;;;;;;;5023616;28;20215;-79
2023/07/26 09:45:21;;;;;;;2.45;1.52;;;;;;;;;;5032986;28;20253;-80
2023/07/26 09:47:47;;;;;;;1.63;1.30;;;;;;;;;;5026492;28;20748;-78
2023/07/26 09:50:29;;;;;;;2.88;1.48;;;;;;;;;;5008868;28;20232;-79
2023/07/26 09:52:56;;;;;;;1.45;1.20;;;;;;;;;;5024956;28;20664;-79
2023/07/26 09:55:24;;;;;;;1.58;1.48;;;;;;;;;;5029760;28;20748;-79
2023/07/26 09:57:51;;;;;;;2.55;1.40;;;;;;;;;;5043689;28;20234;-78
2023/07/26 10:00:16;;;;;;;1.88;1.10;;;;;;;;;;5026028;28;20208;-79
2023/07/26 10:02:45;;;;;;;1.25;1.15;;;;;;;;;;5032611;28;20227;-79
2023/07/26 10:05:13;;;;;;;2.10;1.30;;;;;;;;;;5027998;28;20208;-78
2023/07/26 10:07:41;;;;;;;4.65;1.45;;;;;;;;;;5030386;28;20229;-79
2023/07/26 10:10:07;;;;;;;2.47;1.42;;;;;;;;;;5025840;28;20231;-78
2023/07/26 10:12:32;;;;;;;2.83;1.40;;;;;;;;;;5038828;28;20229;-77
2023/07/26 10:14:58;;;;;;;1.30;1.20;;;;;;;;;;5038112;28;20289;-78
2023/07/26 10:17:25;;;;;;;1.45;1.35;;;;;;;;;;5025275;28;20241;-79
2023/07/26 10:19:50;;;;;;;1.70;1.50;;;;;;;;;;5028290;28;20215;-79
2023/07/26 10:22:21;;;;;;;1.67;1.30;;;;;;;;;;5014392;28;20230;-78
2023/07/26 10:24:49;;;;;;;3.03;1.52;;;;;;;;;;4992452;28;20234;-82
2023/07/26 10:27:14;;;;;;;1.92;1.55;;;;;;;;;;5016780;28;20219;-80
2023/07/26 10:29:42;;;;;;;1.42;1.10;;;;;;;;;;5015719;28;20219;-79
2023/07/26 10:32:08;;;;;;;2.30;1.35;;;;;;;;;;5011882;28;20238;-80
2023/07/26 10:34:34;;;;;;;1.50;1.40;;;;;;;;;;5028452;28;20668;-81
2023/07/26 10:37:18;;;;;;;1.60;1.50;;;;;;;;;;5033139;28;20271;-80
2023/07/26 10:39:46;;;;;;;2.55;1.67;;;;;;;;;;5012152;28;20658;-79
2023/07/26 10:42:27;;;;;;;1.48;1.38;;;;;;;;;;5015628;28;20239;-82
2023/07/26 10:45:00;;;;;;;1.63;1.30;;;;;;;;;;4997019;28;20219;-81
2023/07/26 10:47:26;;;;;;;2.20;1.02;;;;;;;;;;5025118;28;20216;-81
2023/07/26 10:49:53;;;;;;;1.65;1.40;;;;;;;;;;5021392;28;20242;-79
2023/07/26 10:52:20;;;;;;;1.98;1.30;;;;;;;;;;5016383;28;20223;-83
2023/07/26 10:54:45;;;;;;;1.67;1.58;;;;;;;;;;4995989;28;20219;-81
2023/07/26 10:57:15;;;;;;;2.30;1.40;;;;;;;;;;5034209;28;20227;-79
2023/07/26 10:59:52;;;;;;;2.40;1.42;;;;;;;;;;5035539;28;20223;-79
2023/07/26 11:02:36;;;;;;;0.95;0.90;;;;;;;;;;5037395;28;20215;-80
2023/07/26 11:05:03;;;;;;;0.82;0.82;;;;;;;;;;5031106;28;20227;-83
2023/07/26 11:07:47;;;;;;;0.82;0.80;;;;;;;;;;5010236;28;20223;-78
2023/07/26 11:10:20;;;;;;;0.85;0.85;;;;;;;;;;5055464;28;20245;-78
2023/07/26 11:13:09;;;;;;;1.73;0.80;;;;;;;;;;5059866;28;20277;-77
2023/07/26 11:15:40;;;;;;;1.00;1.00;;;;;;;;;;5009437;28;20286;-77
2023/07/26 11:18:06;;;;;;;2.78;1.15;;;;;;;;;;5008166;28;20229;-77
2023/07/26 11:20:40;;;;;;;2.15;1.23;;;;;;;;;;5022783;28;20211;-80
2023/07/26 11:23:17;;;;;;;0.82;0.82;;;;;;;;;;5039724;28;20219;-79
2023/07/26 11:25:55;;;;;;;1.30;1.10;;;;;;;;;;5029817;28;20277;-79
2023/07/26 11:28:22;;;;;;;1.20;1.10;;;;;;;;;;5034400;28;20640;-78
2023/07/26 11:30:55;;;;;;;1.08;0.98;;;;;;;;;;4992908;28;20208;-79
2023/07/26 11:33:29;;;;;;;3.05;1.20;;;;;;;;;;5018083;28;20219;-81
2023/07/26 11:35:55;;;;;;;3.22;1.30;;;;;;;;;;5033870;28;20227;-81
2023/07/26 11:38:21;;;;;;;1.77;1.27;;;;;;;;;;5019243;28;20247;-80
2023/07/26 11:40:46;;;;;;;1.20;1.10;;;;;;;;;;5010242;28;20226;-79
2023/07/26 11:43:12;;;;;;;1.25;1.15;;;;;;;;;;5027098;28;20231;-78
2023/07/26 11:45:42;;;;;;;1.50;1.33;;;;;;;;;;5017666;28;20216;-81
2023/07/26 11:48:10;;;;;;;1.33;1.20;;;;;;;;;;5032203;28;20280;-80
2023/07/26 11:50:38;;;;;;;1.58;1.40;;;;;;;;;;5024500;28;20774;-79
2023/07/26 11:53:10;;;;;;;1.45;1.35;;;;;;;;;;5032405;28;20232;-79
2023/07/26 11:55:40;;;;;;;1.30;1.20;;;;;;;;;;5028130;28;20735;-78
2023/07/26 11:58:08;;;;;;;3.20;1.10;;;;;;;;;;5020333;28;20665;-75
2023/07/26 12:00:38;;;;;;;4.20;1.42;;;;;;;;;;4999907;28;20314;-77
2023/07/26 12:03:06;;;;;;;2.72;1.65;;;;;;;;;;5012911;28;20224;-78
2023/07/26 12:05:32;;;;;;;2.53;1.80;;;;;;;;;;5027228;28;20227;-77
2023/07/26 12:08:04;;;;;;;5.32;1.67;;;;;;;;;;5029904;28;20239;-78
2023/07/26 12:10:31;;;;;;;1.90;1.80;;;;;;;;;;5027680;28;20254;-76
2023/07/26 12:13:00;;;;;;;1.77;1.67;;;;;;;;;;5025727;28;20279;-77
2023/07/26 12:15:27;;;;;;;2.03;1.83;;;;;;;;;;5042596;28;20330;-78
2023/07/26 12:17:57;;;;;;;2.50;1.95;;;;;;;;;;5027770;28;20386;-78
2023/07/26 12:20:25;;;;;;;1.80;1.60;;;;;;;;;;5049148;28;20602;-79
2023/07/26 12:22:55;;;;;;;2.72;2.15;;;;;;;;;;4996945;28;20305;-78
2023/07/26 12:25:24;;;;;;;2.20;2.00;;;;;;;;;;5031409;28;20957;-79
2023/07/26 12:27:52;;;;;;;1.98;1.80;;;;;;;;;;5029471;28;20284;-79
2023/07/26 12:30:18;;;;;;;2.58;1.77;;;;;;;;;;5033601;28;20275;-78
2023/07/26 12:32:48;;;;;;;2.08;1.50;;;;;;;;;;4995054;28;20223;-78
2023/07/26 12:35:21;;;;;;;1.60;1.50;;;;;;;;;;5024977;28;20227;-79
2023/07/26 12:37:53;;;;;;;1.52;1.40;;;;;;;;;;5018776;28;20230;-80
2023/07/26 12:40:19;;;;;;;1.27;1.17;;;;;;;;;;5031707;28;20242;-79
2023/07/26 12:42:45;;;;;;;1.50;1.40;;;;;;;;;;5016346;28;20775;-80
2023/07/26 12:45:13;;;;;;;1.30;1.20;;;;;;;;;;5030336;28;20207;-78
2023/07/26 12:47:40;;;;;;;1.42;1.20;;;;;;;;;;5040177;28;20704;-78
2023/07/26 12:50:06;;;;;;;1.75;1.02;;;;;;;;;;5014966;28;20593;-79
2023/07/26 12:52:32;;;;;;;1.35;1.15;;;;;;;;;;5034810;28;20335;-77
2023/07/26 12:54:57;;;;;;;1.10;1.02;;;;;;;;;;5010140;28;20271;-79
2023/07/26 12:57:23;;;;;;;1.00;1.00;;;;;;;;;;5040554;28;20227;-78
2023/07/26 12:59:48;;;;;;;1.02;1.00;;;;;;;;;;5039984;28;20222;-77
2023/07/26 13:02:14;;;;;;;1.35;1.20;;;;;;;;;;5039322;28;20253;-78
2023/07/26 13:04:41;;;;;;;1.02;0.95;;;;;;;;;;5028083;28;20381;-79
2023/07/26 13:07:12;;;;;;;1.65;1.23;;;;;;;;;;5031371;28;20291;-79
2023/07/26 13:09:38;;;;;;;1.20;1.10;;;;;;;;;;5040083;28;20856;-79
2023/07/26 13:12:04;;;;;;;1.08;1.05;;;;;;;;;;5043020;28;20377;-79
2023/07/26 13:14:32;;;;;;;1.10;1.00;;;;;;;;;;5030496;28;20237;-80
2023/07/26 13:16:59;;;;;;;1.23;1.13;;;;;;;;;;5011029;28;20223;-78
2023/07/26 13:19:25;;;;;;;1.40;1.00;;;;;;;;;;5009678;28;20299;-79
2023/07/26 13:21:53;;;;;;;1.35;1.00;;;;;;;;;;4998224;28;20716;-76
2023/07/26 13:24:21;;;;;;;0.80;0.80;;;;;;;;;;5039519;28;20226;-76
2023/07/26 13:26:46;;;;;;;1.02;0.88;;;;;;;;;;5040377;28;20926;-79
2023/07/26 13:29:12;;;;;;;0.90;0.90;;;;;;;;;;5021739;28;20581;-79
2023/07/26 13:31:37;;;;;;;1.10;1.00;;;;;;;;;;4996571;28;20235;-78
2023/07/26 13:34:05;;;;;;;1.20;1.10;;;;;;;;;;5032309;28;20231;-80
2023/07/26 13:36:30;;;;;;;2.05;1.20;;;;;;;;;;5034177;28;20296;-77
2023/07/26 13:38:56;;;;;;;0.90;0.90;;;;;;;;;;5043390;28;20216;-80
2023/07/26 13:41:21;;;;;;;1.35;0.95;;;;;;;;;;5045240;28;20232;-77
2023/07/26 13:43:47;;;;;;;1.83;1.00;;;;;;;;;;5025708;28;20215;-79
2023/07/26 13:46:17;;;;;;;0.90;0.90;;;;;;;;;;5008544;28;20297;-76
2023/07/26 13:48:43;;;;;;;1.10;1.00;;;;;;;;;;5029941;28;20349;-79
2023/07/26 13:51:11;;;;;;;1.73;1.02;;;;;;;;;;5038546;28;20212;-78
2023/07/26 13:53:37;;;;;;;1.27;1.05;;;;;;;;;;5033125;28;20219;-77
2023/07/26 13:56:03;;;;;;;1.48;1.15;;;;;;;;;;5044550;28;20226;-77
2023/07/26 13:58:28;;;;;;;1.42;1.27;;;;;;;;;;5032152;28;20241;-78
2023/07/26 14:00:54;;;;;;;0.85;0.85;;;;;;;;;;5045093;28;20293;-78
2023/07/26 14:03:19;;;;;;;1.85;1.10;;;;;;;;;;5014198;28;20230;-78
2023/07/26 14:05:47;;;;;;;1.42;1.13;;;;;;;;;;5028780;28;20208;-79
2023/07/26 14:08:15;;;;;;;3.65;1.33;;;;;;;;;;5040158;28;20215;-78
2023/07/26 14:10:41;;;;;;;2.05;1.00;;;;;;;;;;5025794;28;20244;-78
2023/07/26 14:13:06;;;;;;;1.27;1.17;;;;;;;;;;5014170;28;20660;-77
2023/07/26 14:15:32;;;;;;;1.35;1.25;;;;;;;;;;5031219;28;20226;-78
2023/07/26 14:18:05;;;;;;;1.23;1.13;;;;;;;;;;5011501;28;20227;-79
2023/07/26 14:20:32;;;;;;;1.40;1.30;;;;;;;;;;5046785;28;20230;-80
2023/07/26 14:22:58;;;;;;;2.42;1.50;;;;;;;;;;5023750;28;20215;-78
2023/07/26 14:25:23;;;;;;;1.55;1.20;;;;;;;;;;5031332;28;20234;-79
2023/07/26 14:27:49;;;;;;;2.33;1.08;;;;;;;;;;5014052;28;20223;-78
2023/07/26 14:30:14;;;;;;;1.30;1.20;;;;;;;;;;5030705;28;20239;-79
2023/07/26 14:32:40;;;;;;;1.25;0.90;;;;;;;;;;5016544;28;20227;-79
2023/07/26 14:35:06;;;;;;;1.83;1.00;;;;;;;;;;5010484;28;20273;-79
2023/07/26 14:37:31;;;;;;;1.02;0.85;;;;;;;;;;5018787;28;20253;-83
2023/07/26 14:40:01;;;;;;;0.80;0.80;;;;;;;;;;5041432;28;20215;-79
2023/07/26 14:42:27;;;;;;;1.08;0.80;;;;;;;;;;5010333;28;20678;-78
2023/07/26 14:44:53;;;;;;;0.82;0.82;;;;;;;;;;5021930;28;20268;-78
2023/07/26 14:47:21;;;;;;;0.73;0.73;;;;;;;;;;5027369;28;20996;-78
2023/07/26 14:49:46;;;;;;;0.90;0.73;;;;;;;;;;5021523;28;20237;-78
2023/07/26 14:52:12;;;;;;;0.95;0.85;;;;;;;;;;5037870;28;20215;-78